Karla A — TCCR8 — position and weather

sailwx.info

Track history (hours):
 
Tides and Currents Weather Stations Pressure Air Temp Water Temp Dewpoint Dewpoint Depression Visibility Wind Speed Wind Dir Waves Ship Positions

Karla A

Last reported at 2015-Jan-27 10:33 UTC. Time now 2015-Feb-01 07:11 UTC.
Position N 36°34' E 026°39'.

Length 155 m; draft 8.3 m.

Type: Ship (hazmat cat A). MMSI: 271000744.

Date/timePositionNaut miles runAvg speedWind from/ knotsBaromVisibWave heightAir tempDewpointWater temp
2015-Jan-27 10:33N 36°34' E 026°39'1513.5
2015-Jan-27 09:25N 36°45' E 026°26'1613.0
2015-Jan-27 08:12N 36°57' E 026°13'2913.5
2015-Jan-27 06:04N 37°22' E 025°55'713.4
2015-Jan-27 05:33N 37°28' E 025°50'1313.2
2015-Jan-27 04:33N 37°41' E 025°47'136 3.2
2015-Jan-25 10:32N 39°56' E 025°53'4811.5
2015-Jan-25 06:20N 40°25' E 026°43'  
2015-Jan-21 15:22N 39°52' E 025°52'6214.4
2015-Jan-21 11:06N 38°51' E 025°41'1414.9
2015-Jan-21 10:09N 38°37' E 025°42'5114.3
2015-Jan-21 06:33N 37°46' E 025°47'1514.6
2015-Jan-21 05:33N 37°31' E 025°48'2914.4
2015-Jan-21 03:32N 37°06' E 026°07'4615.1
2015-Jan-21 00:28N 36°30' E 026°43'  
Track history (hours):
 
Tides and Currents Weather Stations Pressure Air Temp Water Temp Dewpoint Dewpoint Depression Visibility Wind Speed Wind Dir Waves Ship Positions

Karla A

Last reported at 2015-Jan-27 10:33 UTC. Time now 2015-Feb-01 07:11 UTC.
Position N 36°34' E 026°39'.

Length 155 m; draft 8.3 m.

Type: Ship (hazmat cat A). MMSI: 271000744.

Date/timePositionNaut miles runAvg speedWind from/ knotsBaromVisibWave heightAir tempDewpointWater temp
2015-Jan-27 10:33N 36°34' E 026°39'1513.5
2015-Jan-27 09:25N 36°45' E 026°26'1613.0
2015-Jan-27 08:12N 36°57' E 026°13'2913.5
2015-Jan-27 06:04N 37°22' E 025°55'713.4
2015-Jan-27 05:33N 37°28' E 025°50'1313.2
2015-Jan-27 04:33N 37°41' E 025°47'136 3.2
2015-Jan-25 10:32N 39°56' E 025°53'4811.5
2015-Jan-25 06:20N 40°25' E 026°43'  
2015-Jan-21 15:22N 39°52' E 025°52'6214.4
2015-Jan-21 11:06N 38°51' E 025°41'1414.9
2015-Jan-21 10:09N 38°37' E 025°42'5114.3
2015-Jan-21 06:33N 37°46' E 025°47'1514.6
2015-Jan-21 05:33N 37°31' E 025°48'2914.4
2015-Jan-21 03:32N 37°06' E 026°07'4615.1
2015-Jan-21 00:28N 36°30' E 026°43'  

Dump ship's entire track history